createdAt,value
2022-10-12T00:01:35.708Z,11.13
2022-10-12T00:04:02.803Z,9.02
2022-10-12T00:06:29.871Z,11.63
2022-10-12T00:08:56.754Z,12.02
2022-10-12T00:11:28.918Z,6.85
2022-10-12T00:13:58.254Z,8.32
2022-10-12T00:16:26.509Z,16.38
2022-10-12T00:18:56.539Z,12.23
2022-10-12T00:21:25.642Z,11.40
2022-10-12T00:24:01.717Z,9.25
2022-10-12T00:26:30.018Z,10.07
2022-10-12T00:29:00.276Z,14.20
2022-10-12T00:31:29.732Z,13.98
2022-10-12T00:34:02.257Z,9.25
2022-10-12T00:36:35.782Z,10.35
2022-10-12T00:39:07.559Z,12.77
2022-10-12T00:41:43.262Z,9.48
2022-10-12T00:44:44.490Z,11.02
2022-10-12T00:47:28.171Z,17.67
2022-10-12T00:50:18.376Z,9.13
2022-10-12T00:53:05.804Z,10.77
2022-10-12T00:55:39.787Z,9.95
2022-10-12T00:58:09.076Z,10.77
2022-10-12T01:00:38.923Z,11.43
2022-10-12T01:03:09.693Z,10.23
2022-10-12T01:05:40.753Z,10.95
2022-10-12T01:08:07.611Z,11.98
2022-10-12T01:10:34.413Z,9.50
2022-10-12T01:13:02.219Z,8.07
2022-10-12T01:15:59.642Z,7.53
2022-10-12T01:18:52.130Z,8.98
2022-10-12T01:21:23.451Z,12.70
2022-10-12T01:24:31.640Z,8.90
2022-10-12T01:27:24.148Z,7.00
2022-10-12T01:29:56.944Z,12.13
2022-10-12T01:32:32.943Z,9.38
2022-10-12T01:35:19.949Z,10.15
2022-10-12T01:38:20.865Z,11.32
2022-10-12T01:41:06.343Z,10.95
2022-10-12T01:43:37.314Z,8.73
2022-10-12T01:46:13.385Z,11.45
2022-10-12T01:48:43.054Z,10.07
2022-10-12T01:51:17.217Z,11.02
2022-10-12T01:53:57.211Z,8.77
2022-10-12T01:56:47.181Z,10.45
2022-10-12T01:59:58.688Z,12.30
2022-10-12T02:03:15.011Z,10.15
2022-10-12T02:05:55.119Z,10.30
2022-10-12T02:08:34.833Z,11.52
2022-10-12T02:11:21.458Z,9.85
2022-10-12T02:13:58.236Z,8.48
2022-10-12T02:16:38.655Z,10.80
2022-10-12T02:19:15.185Z,12.48
2022-10-12T02:21:50.656Z,10.02
2022-10-12T02:24:22.341Z,8.93
2022-10-12T02:26:56.648Z,8.00
2022-10-12T02:29:36.547Z,15.63
2022-10-12T02:32:17.872Z,10.35
2022-10-12T02:34:58.871Z,8.40
2022-10-12T02:37:44.365Z,12.95
2022-10-12T02:43:10.515Z,8.95
2022-10-12T02:45:46.440Z,9.20
2022-10-12T02:51:15.346Z,14.35
2022-10-12T02:53:47.874Z,11.55
2022-10-12T02:56:22.267Z,10.77
2022-10-12T02:58:55.976Z,10.30
2022-10-12T03:13:35.904Z,7.93
2022-10-12T03:26:06.316Z,17.02
2022-10-12T03:28:33.950Z,11.73
2022-10-12T03:31:00.970Z,10.93
2022-10-12T03:33:28.026Z,14.20
2022-10-12T03:35:54.963Z,13.98
2022-10-12T03:38:21.855Z,10.98
2022-10-12T03:40:48.694Z,10.57
2022-10-12T03:43:15.543Z,10.45
2022-10-12T03:45:42.526Z,13.52
2022-10-12T03:48:10.044Z,8.48
2022-10-12T03:50:37.181Z,8.80
2022-10-12T03:53:06.250Z,11.52
2022-10-12T03:55:33.576Z,10.50
2022-10-12T03:58:00.698Z,9.90
2022-10-12T04:00:28.549Z,9.00
2022-10-12T04:02:56.095Z,10.80
2022-10-12T04:05:23.326Z,15.30
2022-10-12T04:07:51.263Z,11.32
2022-10-12T04:10:18.465Z,8.57
2022-10-12T04:12:46.652Z,10.45
2022-10-12T04:15:14.469Z,11.00
2022-10-12T04:17:41.836Z,12.90
2022-10-12T04:20:11.394Z,10.55
2022-10-12T04:22:39.939Z,10.20
2022-10-12T04:25:07.548Z,13.18
2022-10-12T04:27:34.956Z,9.93
2022-10-12T04:30:02.051Z,7.90
2022-10-12T04:32:29.656Z,9.75
2022-10-12T04:34:57.035Z,13.07
2022-10-12T04:37:23.873Z,12.90
2022-10-12T04:39:50.883Z,13.50
2022-10-12T04:42:19.184Z,14.70
2022-10-12T04:44:46.935Z,10.88
2022-10-12T04:47:13.873Z,10.93
2022-10-12T04:49:40.696Z,13.70
2022-10-12T04:52:07.506Z,10.35
2022-10-12T04:54:34.442Z,12.07
2022-10-12T04:57:01.714Z,15.32
2022-10-12T04:59:28.598Z,8.38
2022-10-12T05:01:55.537Z,11.73
2022-10-12T05:04:22.785Z,8.88
2022-10-12T05:06:49.736Z,10.88
2022-10-12T05:09:17.472Z,13.40
2022-10-12T05:11:44.603Z,12.02
2022-10-12T05:14:12.138Z,9.35
2022-10-12T05:16:39.540Z,8.50
2022-10-12T05:19:06.622Z,12.82
2022-10-12T05:21:34.905Z,10.43
2022-10-12T05:24:01.988Z,9.57
2022-10-12T05:26:29.274Z,8.77
2022-10-12T05:28:56.275Z,11.20
2022-10-12T05:31:23.552Z,8.45
2022-10-12T05:33:50.892Z,8.32
2022-10-12T05:36:17.817Z,11.23
2022-10-12T05:38:44.808Z,13.80
2022-10-12T05:41:11.946Z,10.60
2022-10-12T05:43:39.257Z,12.10
2022-10-12T05:46:06.995Z,13.57
2022-10-12T05:48:35.149Z,12.30
2022-10-12T05:51:02.264Z,10.07
2022-10-12T05:53:29.201Z,11.50
2022-10-12T05:55:59.633Z,7.93
2022-10-12T05:58:28.857Z,9.98
2022-10-12T06:01:04.706Z,8.02
2022-10-12T06:03:34.856Z,8.18
2022-10-12T06:06:04.191Z,9.77
2022-10-12T06:08:32.566Z,10.10
2022-10-12T06:10:59.981Z,12.38
2022-10-12T06:13:27.972Z,9.93
2022-10-12T06:15:55.560Z,8.20
2022-10-12T06:18:23.086Z,9.32
2022-10-12T06:21:14.846Z,7.60
2022-10-12T06:23:41.187Z,12.55
2022-10-12T06:26:08.056Z,10.63
2022-10-12T06:28:35.021Z,9.88
2022-10-12T06:31:02.096Z,9.38
2022-10-12T06:33:29.645Z,11.95
2022-10-12T06:35:57.566Z,9.80
2022-10-12T06:38:25.326Z,14.15
2022-10-12T06:40:53.630Z,12.48
2022-10-12T06:43:23.403Z,11.23
2022-10-12T06:45:56.437Z,18.40
2022-10-12T06:48:25.737Z,10.03
2022-10-12T06:50:54.840Z,11.82
2022-10-12T06:53:28.995Z,14.50
2022-10-12T06:55:59.584Z,11.15
2022-10-12T06:58:26.939Z,13.45
2022-10-12T07:00:56.058Z,11.90
2022-10-12T07:03:25.087Z,11.50
2022-10-12T07:05:56.424Z,18.85
2022-10-12T07:08:25.507Z,16.42
2022-10-12T07:11:13.389Z,13.00
2022-10-12T07:13:42.872Z,20.45
2022-10-12T07:16:12.298Z,18.33
2022-10-12T07:18:42.471Z,25.23
2022-10-12T07:21:10.502Z,19.23
2022-10-12T07:23:42.381Z,33.22
2022-10-12T07:26:14.979Z,23.40
2022-10-12T07:28:44.113Z,25.27
2022-10-12T07:31:16.174Z,30.52
2022-10-12T07:33:47.623Z,31.85
2022-10-12T07:36:21.545Z,25.80
2022-10-12T07:38:55.029Z,24.17
2022-10-12T07:41:22.098Z,34.90
2022-10-12T07:43:54.326Z,33.95
2022-10-12T07:46:21.295Z,22.40
2022-10-12T07:48:50.424Z,22.98
2022-10-12T07:51:18.407Z,27.73
2022-10-12T07:53:45.846Z,30.67
2022-10-12T07:56:16.844Z,26.42
2022-10-12T07:58:53.114Z,21.10
2022-10-12T08:01:22.760Z,25.13
2022-10-12T08:03:50.320Z,21.60
2022-10-12T08:06:22.132Z,34.15
2022-10-12T08:08:50.586Z,20.50
2022-10-12T08:11:18.898Z,25.45
2022-10-12T08:13:46.511Z,26.05
2022-10-12T08:16:18.105Z,24.83
2022-10-12T08:18:44.995Z,24.35
2022-10-12T08:21:15.457Z,24.92
2022-10-12T08:23:45.013Z,34.30
2022-10-12T08:26:14.781Z,18.88
2022-10-12T08:28:42.043Z,19.08
2022-10-12T08:31:16.531Z,19.58
2022-10-12T08:33:44.052Z,26.15
2022-10-12T08:36:13.317Z,21.08
2022-10-12T08:38:40.648Z,17.00
2022-10-12T08:42:05.498Z,19.15
2022-10-12T08:45:07.556Z,19.83
2022-10-12T08:47:44.361Z,21.40
2022-10-12T08:50:35.831Z,19.58
2022-10-12T08:53:21.625Z,15.93
2022-10-12T08:55:55.786Z,15.25
2022-10-12T08:58:44.033Z,12.27
2022-10-12T09:01:30.450Z,12.10
2022-10-12T09:04:14.550Z,12.00
2022-10-12T09:06:55.445Z,12.75
2022-10-12T09:09:51.996Z,18.98
2022-10-12T09:13:30.566Z,16.58
2022-10-12T09:16:11.958Z,13.27
2022-10-12T09:18:44.592Z,13.13
2022-10-12T09:21:19.765Z,13.30
2022-10-12T09:23:48.104Z,13.63
2022-10-12T09:26:22.996Z,12.10
2022-10-12T09:28:57.462Z,17.17
2022-10-12T09:32:33.270Z,11.27
2022-10-12T09:35:00.517Z,15.10
2022-10-12T09:37:33.028Z,6.72
2022-10-12T09:40:00.260Z,15.13
2022-10-12T09:42:27.096Z,9.35
2022-10-12T09:45:19.054Z,9.32
2022-10-12T09:48:22.236Z,10.85
2022-10-12T09:51:01.144Z,12.10
2022-10-12T09:53:43.640Z,10.55
2022-10-12T09:56:30.340Z,10.77
2022-10-12T09:59:06.905Z,9.98
2022-10-12T10:01:38.310Z,10.95
2022-10-12T10:04:24.623Z,9.07
2022-10-12T10:06:51.849Z,7.47
2022-10-12T10:09:35.412Z,8.10
2022-10-12T10:12:26.765Z,8.82
2022-10-12T10:14:57.147Z,14.95
2022-10-12T10:17:33.967Z,7.10
2022-10-12T10:20:05.590Z,9.25
2022-10-12T10:22:32.877Z,12.63
2022-10-12T10:25:01.296Z,11.75
2022-10-12T10:27:39.902Z,13.48
2022-10-12T10:30:30.075Z,11.55
2022-10-12T10:33:19.575Z,11.88
2022-10-12T10:36:03.987Z,9.10
2022-10-12T10:38:44.823Z,7.65
2022-10-12T10:41:18.375Z,10.30
2022-10-12T10:43:49.997Z,8.07
2022-10-12T10:46:26.462Z,8.40
2022-10-12T10:49:06.094Z,6.68
2022-10-12T10:51:50.227Z,4.20
2022-10-12T10:54:31.370Z,7.18
2022-10-12T10:57:21.786Z,8.20
2022-10-12T11:00:14.191Z,3.83
2022-10-12T11:02:54.324Z,7.50
2022-10-12T11:05:31.766Z,5.18
2022-10-12T11:08:03.175Z,7.03
2022-10-12T11:10:54.615Z,4.97
2022-10-12T11:13:44.019Z,7.15
2022-10-12T11:16:43.552Z,7.18
2022-10-12T11:19:36.915Z,4.78
2022-10-12T11:22:25.788Z,9.52
2022-10-12T11:25:14.428Z,8.38
2022-10-12T11:27:42.276Z,6.50
2022-10-12T11:30:23.906Z,9.82
2022-10-12T11:33:06.606Z,8.98
2022-10-12T11:35:42.503Z,5.55
2022-10-12T11:38:22.294Z,9.07
2022-10-12T11:41:34.406Z,7.50
2022-10-12T11:44:16.321Z,7.35
2022-10-12T11:46:55.577Z,8.90
2022-10-12T11:49:59.771Z,13.95
2022-10-12T11:52:37.007Z,7.47
2022-10-12T11:55:24.201Z,6.72
2022-10-12T11:57:54.417Z,8.77
2022-10-12T12:00:32.617Z,7.63
2022-10-12T12:03:15.329Z,12.55
2022-10-12T12:05:42.679Z,11.50
2022-10-12T12:08:43.878Z,9.18
2022-10-12T12:11:30.306Z,7.75
2022-10-12T12:14:21.802Z,11.68
2022-10-12T12:16:49.631Z,8.73
2022-10-12T12:19:43.253Z,11.93
2022-10-12T12:22:32.384Z,10.48
2022-10-12T12:25:08.461Z,15.50
2022-10-12T12:27:43.793Z,10.48
2022-10-12T12:30:19.348Z,8.25
2022-10-12T12:32:51.648Z,8.80
2022-10-12T12:35:26.161Z,7.22
2022-10-12T12:38:18.753Z,7.72
2022-10-12T12:41:10.358Z,9.48
2022-10-12T12:43:57.141Z,10.63
2022-10-12T12:46:47.233Z,9.50
2022-10-12T12:49:39.342Z,8.65
2022-10-12T12:52:38.359Z,12.50
2022-10-12T12:55:39.065Z,13.85
2022-10-12T12:58:40.520Z,8.98
2022-10-12T13:01:20.893Z,13.32
2022-10-12T13:04:45.246Z,7.53
2022-10-12T13:07:42.440Z,10.30
2022-10-12T13:10:33.812Z,8.18
2022-10-12T13:13:44.624Z,14.43
2022-10-12T13:17:31.421Z,8.20
2022-10-12T13:19:44.813Z,11.45
2022-10-12T13:22:34.900Z,11.70
2022-10-12T13:25:23.766Z,10.55
2022-10-12T13:27:53.130Z,9.68
2022-10-12T13:30:54.623Z,7.60
2022-10-12T13:33:32.119Z,9.07
2022-10-12T13:36:09.013Z,7.22
2022-10-12T13:38:38.440Z,7.22
2022-10-12T13:41:11.329Z,8.50
2022-10-12T13:43:51.478Z,11.60
2022-10-12T13:46:41.685Z,10.55
2022-10-12T13:49:31.262Z,9.70
2022-10-12T13:52:19.964Z,7.60
2022-10-12T13:54:49.734Z,12.30
2022-10-12T13:57:41.209Z,8.57
2022-10-12T14:00:14.305Z,9.02
2022-10-12T14:02:43.544Z,8.82
2022-10-12T14:05:21.258Z,8.48
2022-10-12T14:07:52.364Z,6.97
2022-10-12T14:14:09.916Z,7.97
2022-10-12T14:16:47.243Z,8.20
2022-10-12T14:19:31.838Z,11.90
2022-10-12T14:22:01.037Z,7.18
2022-10-12T14:24:28.559Z,10.00
2022-10-12T14:27:02.848Z,12.30
2022-10-12T14:29:45.212Z,11.35
2022-10-12T14:32:11.968Z,8.13
2022-10-12T14:34:50.137Z,6.68
2022-10-12T14:37:17.848Z,15.50
2022-10-12T14:39:48.689Z,8.25
2022-10-12T14:42:30.718Z,6.78
2022-10-12T14:44:59.309Z,8.13
2022-10-12T14:47:33.547Z,9.73
2022-10-12T14:50:10.379Z,12.05
2022-10-12T14:53:11.816Z,10.80
2022-10-12T14:55:39.593Z,10.27
2022-10-12T14:58:08.134Z,6.32
2022-10-12T15:00:37.566Z,9.75
2022-10-12T15:03:05.281Z,12.10
2022-10-12T15:05:33.964Z,6.97
2022-10-12T15:08:07.087Z,10.93
2022-10-12T15:10:34.513Z,7.28
2022-10-12T15:13:01.451Z,8.20
2022-10-12T15:15:47.570Z,8.90
2022-10-12T15:18:14.405Z,7.75
2022-10-12T15:20:45.419Z,10.63
2022-10-12T15:23:15.299Z,9.77
2022-10-12T15:25:50.091Z,14.75
2022-10-12T15:28:17.448Z,14.32
2022-10-12T15:31:11.620Z,10.88
2022-10-12T15:33:32.148Z,11.95
2022-10-12T15:35:58.922Z,11.77
2022-10-12T15:38:25.747Z,9.50
2022-10-12T15:40:53.322Z,9.20
2022-10-12T15:43:20.451Z,11.48
2022-10-12T15:45:47.368Z,11.15
2022-10-12T15:48:14.064Z,12.95
2022-10-12T15:50:45.389Z,7.25
2022-10-12T15:53:23.865Z,8.60
2022-10-12T15:55:55.205Z,11.25
2022-10-12T15:58:23.450Z,9.93
2022-10-12T16:00:52.912Z,10.90
2022-10-12T16:06:02.690Z,10.50
2022-10-12T16:08:29.478Z,9.68
2022-10-12T16:10:57.052Z,11.27
2022-10-12T16:16:05.651Z,10.88
2022-10-12T16:18:32.472Z,16.95
2022-10-12T16:20:59.315Z,17.80
2022-10-12T16:23:35.961Z,16.38
2022-10-12T16:26:29.965Z,10.75
2022-10-12T16:29:03.493Z,12.73
2022-10-12T16:31:30.326Z,16.10
2022-10-12T16:34:09.603Z,10.88
2022-10-12T16:36:40.160Z,15.50
2022-10-12T16:39:06.965Z,16.92
2022-10-12T16:41:34.181Z,18.55
2022-10-12T16:44:01.652Z,10.23
2022-10-12T16:46:30.460Z,12.48
2022-10-12T16:48:57.208Z,13.15
2022-10-12T16:51:24.002Z,9.77
2022-10-12T16:53:50.997Z,14.75
2022-10-12T16:56:17.791Z,16.95
2022-10-12T16:58:44.583Z,16.20
2022-10-12T17:01:13.655Z,14.02
2022-10-12T17:03:40.912Z,18.98
2022-10-12T17:06:08.196Z,16.48
2022-10-12T17:08:36.710Z,22.05
2022-10-12T17:11:14.228Z,19.98
2022-10-12T17:13:45.323Z,18.67
2022-10-12T17:16:33.146Z,18.67
2022-10-12T17:19:00.360Z,17.75
2022-10-12T17:21:28.649Z,11.27
2022-10-12T17:24:00.602Z,14.15
2022-10-12T17:26:28.939Z,21.58
2022-10-12T17:28:56.321Z,18.10
2022-10-12T17:31:54.070Z,14.45
2022-10-12T17:34:33.713Z,12.55
2022-10-12T17:37:17.180Z,15.45
2022-10-12T17:40:10.819Z,18.88
2022-10-12T17:42:39.007Z,17.65
2022-10-12T17:45:07.326Z,14.57
2022-10-12T17:47:41.601Z,16.25
2022-10-12T17:50:28.977Z,14.23
2022-10-12T17:52:56.412Z,14.25
2022-10-12T17:55:47.163Z,19.88
2022-10-12T17:58:15.890Z,13.43
2022-10-12T18:00:43.069Z,20.20
2022-10-12T18:03:11.638Z,15.52
2022-10-12T18:05:38.985Z,12.38
2022-10-12T18:08:06.263Z,10.77
2022-10-12T18:10:33.690Z,11.20
2022-10-12T18:13:01.148Z,15.02
2022-10-12T18:15:51.752Z,17.58
2022-10-12T18:18:20.710Z,14.52
2022-10-12T18:20:49.094Z,18.20
2022-10-12T18:23:17.101Z,13.30
2022-10-12T18:25:55.377Z,26.02
2022-10-12T18:28:23.876Z,20.48
2022-10-12T18:30:53.543Z,19.20
2022-10-12T18:33:37.517Z,15.73
2022-10-12T18:36:11.925Z,18.05
2022-10-12T18:38:39.944Z,13.48
2022-10-12T18:41:30.204Z,24.38
2022-10-12T18:44:14.234Z,18.98
2022-10-12T18:46:44.902Z,17.42
2022-10-12T18:49:12.690Z,14.38
2022-10-12T18:51:43.687Z,11.48
2022-10-12T18:54:13.953Z,20.92
2022-10-12T18:56:42.208Z,12.02
2022-10-12T18:59:11.775Z,18.83
2022-10-12T19:01:39.705Z,20.95
2022-10-12T19:04:07.239Z,18.52
2022-10-12T19:06:39.208Z,18.33
2022-10-12T19:09:06.457Z,21.17
2022-10-12T19:11:34.594Z,20.15
2022-10-12T19:14:06.095Z,23.15
2022-10-12T19:16:34.705Z,31.77
2022-10-12T19:19:14.794Z,20.58
2022-10-12T19:21:49.043Z,19.63
2022-10-12T19:24:16.486Z,17.73
2022-10-12T19:26:44.565Z,22.02
2022-10-12T19:29:14.996Z,20.67
2022-10-12T19:31:50.111Z,15.10
2022-10-12T19:36:48.556Z,14.77
2022-10-12T19:39:20.357Z,16.35
2022-10-12T19:41:49.277Z,18.50
2022-10-12T19:44:19.067Z,18.60
2022-10-12T19:46:49.843Z,17.02
2022-10-12T19:49:20.755Z,17.40
2022-10-12T19:51:48.965Z,20.15
2022-10-12T19:54:24.788Z,21.05
2022-10-12T19:56:54.482Z,21.42
2022-10-12T19:59:29.479Z,21.75
2022-10-12T20:01:58.580Z,16.15
2022-10-12T20:04:26.044Z,13.73
2022-10-12T20:06:53.948Z,17.88
2022-10-12T20:09:24.286Z,20.95
2022-10-12T20:11:53.133Z,19.42
2022-10-12T20:14:21.302Z,17.83
2022-10-12T20:16:53.329Z,17.10
2022-10-12T20:19:20.719Z,19.77
2022-10-12T20:21:48.434Z,21.40
2022-10-12T20:24:16.407Z,16.17
2022-10-12T20:26:44.177Z,21.77
2022-10-12T20:29:11.716Z,25.00
2022-10-12T20:31:40.940Z,34.95
2022-10-12T20:34:13.665Z,16.65
2022-10-12T20:36:52.876Z,19.02
2022-10-12T20:39:23.355Z,18.30
2022-10-12T20:41:53.039Z,19.30
2022-10-12T20:44:20.990Z,27.75
2022-10-12T20:46:58.511Z,24.25
2022-10-12T20:49:27.784Z,18.55
2022-10-12T20:52:07.109Z,20.10
2022-10-12T20:54:36.113Z,25.30
2022-10-12T20:57:08.289Z,27.50
2022-10-12T20:59:37.414Z,23.88
2022-10-12T21:02:10.609Z,20.38
2022-10-12T21:04:46.619Z,25.83
2022-10-12T21:07:18.126Z,24.67
2022-10-12T21:09:48.406Z,25.13
2022-10-12T21:12:19.025Z,22.38
2022-10-12T21:14:47.670Z,21.52
2022-10-12T21:17:18.534Z,21.95
2022-10-12T21:19:52.945Z,21.85
2022-10-12T21:22:20.852Z,24.00
2022-10-12T21:24:48.760Z,30.38
2022-10-12T21:27:16.205Z,26.38
2022-10-12T21:29:54.010Z,25.45
2022-10-12T21:32:23.473Z,20.52
2022-10-12T21:34:56.759Z,21.30
2022-10-12T21:37:24.551Z,24.27
2022-10-12T21:39:55.169Z,24.40
2022-10-12T21:42:23.088Z,21.85
2022-10-12T21:45:04.392Z,22.88
2022-10-12T21:47:38.345Z,20.88
2022-10-12T21:50:11.970Z,21.10
2022-10-12T21:52:40.563Z,22.52
2022-10-12T21:55:09.241Z,21.00
2022-10-12T21:57:37.619Z,21.90
2022-10-12T22:00:08.036Z,24.85
2022-10-12T22:02:39.836Z,22.63
2022-10-12T22:05:12.903Z,20.48
2022-10-12T22:07:43.700Z,20.55
2022-10-12T22:10:14.394Z,26.85
2022-10-12T22:12:47.218Z,20.88
2022-10-12T22:15:21.873Z,26.95
2022-10-12T22:17:51.164Z,21.33
2022-10-12T22:20:32.123Z,20.35
2022-10-12T22:23:19.390Z,23.30
2022-10-12T22:25:55.614Z,24.42
2022-10-12T22:28:29.282Z,20.05
2022-10-12T22:31:00.028Z,19.45
2022-10-12T22:33:27.962Z,22.23
2022-10-12T22:36:01.134Z,17.00
2022-10-12T22:38:36.501Z,16.88
2022-10-12T22:41:16.384Z,19.95
2022-10-12T22:43:48.668Z,16.95
2022-10-12T22:46:22.616Z,17.23
2022-10-12T22:48:50.567Z,16.80
2022-10-12T22:51:31.927Z,17.38
2022-10-12T22:54:02.275Z,18.73
2022-10-12T22:56:30.143Z,14.32
2022-10-12T22:59:00.789Z,15.82
2022-10-12T23:01:30.359Z,14.73
2022-10-12T23:04:00.379Z,22.35
2022-10-12T23:06:28.614Z,24.02
2022-10-12T23:08:58.265Z,19.95
2022-10-12T23:11:30.305Z,17.63
2022-10-12T23:13:59.776Z,16.48
2022-10-12T23:16:36.791Z,24.08
2022-10-12T23:19:09.353Z,20.13
2022-10-12T23:21:45.680Z,18.90
2022-10-12T23:24:16.974Z,17.20
2022-10-12T23:26:45.929Z,29.25
2022-10-12T23:29:29.870Z,25.73
2022-10-12T23:32:01.015Z,15.55
2022-10-12T23:34:35.451Z,23.90
2022-10-12T23:37:06.966Z,18.75
2022-10-12T23:39:46.844Z,32.88
2022-10-12T23:42:18.108Z,23.83
2022-10-12T23:44:50.819Z,21.90
2022-10-12T23:47:25.798Z,23.23
2022-10-12T23:49:54.518Z,17.83
2022-10-12T23:52:23.419Z,17.20
2022-10-12T23:54:53.297Z,16.52
2022-10-12T23:57:45.093Z,19.50
